sensor_id;sensor_type;location;lat;lon;timestamp;pressure;altitude;pressure_sealevel;temperature;humidity
50632;BME280;49583;45.590;-122.498;2022-08-21T00:02:12;100962.31;;;26.88;45.56
50632;BME280;49583;45.590;-122.498;2022-08-21T00:04:19;100960.38;;;26.89;45.40
50632;BME280;49583;45.590;-122.498;2022-08-21T00:06:26;100954.60;;;26.86;45.20
50632;BME280;49583;45.590;-122.498;2022-08-21T00:08:51;100954.14;;;26.86;45.13
50632;BME280;49583;45.590;-122.498;2022-08-21T00:11:02;100951.27;;;26.84;45.12
50632;BME280;49583;45.590;-122.498;2022-08-21T00:13:19;100950.72;;;26.83;45.24
50632;BME280;49583;45.590;-122.498;2022-08-21T00:15:29;100947.09;;;26.80;45.34
50632;BME280;49583;45.590;-122.498;2022-08-21T00:17:45;100947.01;;;26.78;45.58
50632;BME280;49583;45.590;-122.498;2022-08-21T00:20:13;100945.20;;;26.80;45.79
50632;BME280;49583;45.590;-122.498;2022-08-21T00:22:27;100949.33;;;26.86;46.23
50632;BME280;49583;45.590;-122.498;2022-08-21T00:26:59;100946.81;;;26.99;46.21
50632;BME280;49583;45.590;-122.498;2022-08-21T00:29:06;100944.73;;;27.04;46.06
50632;BME280;49583;45.590;-122.498;2022-08-21T00:31:13;100943.95;;;27.09;46.26
50632;BME280;49583;45.590;-122.498;2022-08-21T00:33:20;100940.63;;;27.15;46.28
50632;BME280;49583;45.590;-122.498;2022-08-21T00:38:15;100941.15;;;27.26;46.00
50632;BME280;49583;45.590;-122.498;2022-08-21T00:40:49;100939.37;;;27.26;45.93
50632;BME280;49583;45.590;-122.498;2022-08-21T00:43:12;100940.65;;;27.26;45.95
50632;BME280;49583;45.590;-122.498;2022-08-21T00:46:01;100939.70;;;27.24;45.86
50632;BME280;49583;45.590;-122.498;2022-08-21T00:48:13;100937.34;;;27.19;45.86
50632;BME280;49583;45.590;-122.498;2022-08-21T00:50:35;100934.88;;;27.18;46.03
50632;BME280;49583;45.590;-122.498;2022-08-21T00:52:59;100931.53;;;27.18;46.06
50632;BME280;49583;45.590;-122.498;2022-08-21T00:55:10;100934.44;;;27.17;46.03
50632;BME280;49583;45.590;-122.498;2022-08-21T00:57:24;100930.35;;;27.17;45.77
50632;BME280;49583;45.590;-122.498;2022-08-21T00:59:57;100932.09;;;27.12;45.45
50632;BME280;49583;45.590;-122.498;2022-08-21T01:02:16;100929.59;;;27.07;45.42
50632;BME280;49583;45.590;-122.498;2022-08-21T01:04:30;100926.16;;;27.04;45.53
50632;BME280;49583;45.590;-122.498;2022-08-21T01:11:59;100924.95;;;26.97;45.69
50632;BME280;49583;45.590;-122.498;2022-08-21T01:14:15;100925.25;;;26.96;45.90
50632;BME280;49583;45.590;-122.498;2022-08-21T01:16:26;100927.23;;;26.95;46.01
50632;BME280;49583;45.590;-122.498;2022-08-21T01:18:42;100931.11;;;26.94;46.19
50632;BME280;49583;45.590;-122.498;2022-08-21T01:21:15;100926.11;;;26.93;45.84
50632;BME280;49583;45.590;-122.498;2022-08-21T01:23:47;100927.16;;;26.91;46.06
50632;BME280;49583;45.590;-122.498;2022-08-21T01:26:00;100924.76;;;26.90;45.94
50632;BME280;49583;45.590;-122.498;2022-08-21T01:28:22;100928.04;;;26.91;46.30
50632;BME280;49583;45.590;-122.498;2022-08-21T01:30:56;100926.27;;;26.91;46.29
50632;BME280;49583;45.590;-122.498;2022-08-21T01:33:26;100923.79;;;26.91;46.50
50632;BME280;49583;45.590;-122.498;2022-08-21T01:36:17;100923.07;;;26.91;46.68
50632;BME280;49583;45.590;-122.498;2022-08-21T01:38:27;100920.66;;;26.90;46.62
50632;BME280;49583;45.590;-122.498;2022-08-21T01:40:58;100920.27;;;26.88;46.57
50632;BME280;49583;45.590;-122.498;2022-08-21T01:43:18;100924.57;;;26.85;46.66
50632;BME280;49583;45.590;-122.498;2022-08-21T01:46:00;100920.40;;;26.79;46.91
50632;BME280;49583;45.590;-122.498;2022-08-21T01:48:09;100928.27;;;26.79;46.78
50632;BME280;49583;45.590;-122.498;2022-08-21T01:53:32;100923.23;;;26.71;47.14
50632;BME280;49583;45.590;-122.498;2022-08-21T01:56:20;100919.66;;;26.68;47.15
50632;BME280;49583;45.590;-122.498;2022-08-21T01:58:34;100918.64;;;26.65;47.54
50632;BME280;49583;45.590;-122.498;2022-08-21T02:00:43;100918.80;;;26.63;47.35
50632;BME280;49583;45.590;-122.498;2022-08-21T02:03:07;100916.36;;;26.60;47.40
50632;BME280;49583;45.590;-122.498;2022-08-21T02:08:05;100916.98;;;26.55;47.58
50632;BME280;49583;45.590;-122.498;2022-08-21T02:10:36;100914.97;;;26.53;47.72
50632;BME280;49583;45.590;-122.498;2022-08-21T02:12:54;100914.77;;;26.50;47.76
50632;BME280;49583;45.590;-122.498;2022-08-21T02:15:04;100918.38;;;26.48;47.61
50632;BME280;49583;45.590;-122.498;2022-08-21T02:19:37;100914.45;;;26.42;48.04
50632;BME280;49583;45.590;-122.498;2022-08-21T02:21:54;100917.11;;;26.40;47.94
50632;BME280;49583;45.590;-122.498;2022-08-21T02:24:08;100917.47;;;26.37;48.10
50632;BME280;49583;45.590;-122.498;2022-08-21T02:26:36;100917.05;;;26.33;48.13
50632;BME280;49583;45.590;-122.498;2022-08-21T02:28:46;100917.96;;;26.28;48.00
50632;BME280;49583;45.590;-122.498;2022-08-21T02:30:57;100919.58;;;26.26;48.24
50632;BME280;49583;45.590;-122.498;2022-08-21T02:33:11;100918.59;;;26.24;48.32
50632;BME280;49583;45.590;-122.498;2022-08-21T02:35:19;100918.85;;;26.22;48.35
50632;BME280;49583;45.590;-122.498;2022-08-21T02:37:32;100917.98;;;26.19;48.54
50632;BME280;49583;45.590;-122.498;2022-08-21T02:40:04;100921.29;;;26.15;48.43
50632;BME280;49583;45.590;-122.498;2022-08-21T02:42:24;100928.34;;;26.13;48.45
50632;BME280;49583;45.590;-122.498;2022-08-21T02:44:48;100924.27;;;26.10;48.76
50632;BME280;49583;45.590;-122.498;2022-08-21T02:47:06;100927.71;;;26.09;48.62
50632;BME280;49583;45.590;-122.498;2022-08-21T02:49:17;100929.41;;;26.06;48.69
50632;BME280;49583;45.590;-122.498;2022-08-21T02:51:35;100932.69;;;26.04;48.79
50632;BME280;49583;45.590;-122.498;2022-08-21T02:53:55;100931.66;;;26.01;48.77
50632;BME280;49583;45.590;-122.498;2022-08-21T02:56:09;100930.84;;;25.98;48.78
50632;BME280;49583;45.590;-122.498;2022-08-21T02:58:26;100932.92;;;25.94;48.98
50632;BME280;49583;45.590;-122.498;2022-08-21T03:00:35;100930.70;;;25.89;49.23
50632;BME280;49583;45.590;-122.498;2022-08-21T03:02:42;100930.50;;;25.84;49.38
50632;BME280;49583;45.590;-122.498;2022-08-21T03:04:52;100931.30;;;25.79;49.40
50632;BME280;49583;45.590;-122.498;2022-08-21T03:07:13;100931.74;;;25.74;49.45
50632;BME280;49583;45.590;-122.498;2022-08-21T03:09:21;100933.13;;;25.70;49.59
50632;BME280;49583;45.590;-122.498;2022-08-21T03:11:31;100933.09;;;25.66;49.83
50632;BME280;49583;45.590;-122.498;2022-08-21T03:13:44;100935.49;;;25.63;49.91
50632;BME280;49583;45.590;-122.498;2022-08-21T03:15:51;100934.88;;;25.61;50.06
50632;BME280;49583;45.590;-122.498;2022-08-21T03:17:58;100935.84;;;25.58;50.30
50632;BME280;49583;45.590;-122.498;2022-08-21T03:22:43;100939.23;;;25.53;50.64
50632;BME280;49583;45.590;-122.498;2022-08-21T03:25:07;100934.17;;;25.48;50.82
50632;BME280;49583;45.590;-122.498;2022-08-21T03:27:16;100938.17;;;25.45;50.92
50632;BME280;49583;45.590;-122.498;2022-08-21T03:29:29;100938.98;;;25.42;51.05
50632;BME280;49583;45.590;-122.498;2022-08-21T03:31:36;100942.52;;;25.39;51.24
50632;BME280;49583;45.590;-122.498;2022-08-21T03:33:43;100946.86;;;25.37;51.13
50632;BME280;49583;45.590;-122.498;2022-08-21T03:36:14;100949.20;;;25.34;51.20
50632;BME280;49583;45.590;-122.498;2022-08-21T03:38:32;100951.98;;;25.28;51.08
50632;BME280;49583;45.590;-122.498;2022-08-21T03:40:43;100960.91;;;25.24;51.13
50632;BME280;49583;45.590;-122.498;2022-08-21T03:42:53;100963.55;;;25.20;51.19
50632;BME280;49583;45.590;-122.498;2022-08-21T03:45:04;100966.36;;;25.15;51.22
50632;BME280;49583;45.590;-122.498;2022-08-21T03:47:11;100964.13;;;25.10;51.23
50632;BME280;49583;45.590;-122.498;2022-08-21T03:49:18;100963.82;;;25.05;51.29
50632;BME280;49583;45.590;-122.498;2022-08-21T03:51:26;100964.48;;;25.00;51.52
50632;BME280;49583;45.590;-122.498;2022-08-21T03:53:35;100967.17;;;24.96;51.55
50632;BME280;49583;45.590;-122.498;2022-08-21T03:55:42;100968.98;;;24.92;51.56
50632;BME280;49583;45.590;-122.498;2022-08-21T03:57:54;100977.48;;;24.88;51.48
50632;BME280;49583;45.590;-122.498;2022-08-21T04:00:25;100976.29;;;24.83;51.60
50632;BME280;49583;45.590;-122.498;2022-08-21T04:02:31;100978.43;;;24.78;51.58
50632;BME280;49583;45.590;-122.498;2022-08-21T04:04:41;100982.25;;;24.74;51.52
50632;BME280;49583;45.590;-122.498;2022-08-21T04:06:48;100984.98;;;24.71;51.54
50632;BME280;49583;45.590;-122.498;2022-08-21T04:09:05;100986.55;;;24.68;51.54
50632;BME280;49583;45.590;-122.498;2022-08-21T04:11:19;100990.54;;;24.65;51.64
50632;BME280;49583;45.590;-122.498;2022-08-21T04:13:29;100996.55;;;24.63;51.54
50632;BME280;49583;45.590;-122.498;2022-08-21T04:15:39;100997.17;;;24.58;51.57
50632;BME280;49583;45.590;-122.498;2022-08-21T04:17:46;100998.88;;;24.55;51.49
50632;BME280;49583;45.590;-122.498;2022-08-21T04:19:57;101001.25;;;24.50;51.42
50632;BME280;49583;45.590;-122.498;2022-08-21T04:22:03;101008.38;;;24.45;51.44
50632;BME280;49583;45.590;-122.498;2022-08-21T04:24:23;101004.36;;;24.40;51.43
50632;BME280;49583;45.590;-122.498;2022-08-21T04:26:42;101000.30;;;24.34;51.54
50632;BME280;49583;45.590;-122.498;2022-08-21T04:28:52;101007.32;;;24.32;51.61
50632;BME280;49583;45.590;-122.498;2022-08-21T04:31:02;101007.96;;;24.27;51.67
50632;BME280;49583;45.590;-122.498;2022-08-21T04:36:10;101012.80;;;24.19;51.84
50632;BME280;49583;45.590;-122.498;2022-08-21T04:38:17;101017.55;;;24.15;51.91
50632;BME280;49583;45.590;-122.498;2022-08-21T04:43:06;101017.86;;;24.04;52.18
50632;BME280;49583;45.590;-122.498;2022-08-21T04:45:30;101017.83;;;23.97;52.23
50632;BME280;49583;45.590;-122.498;2022-08-21T04:47:42;101018.17;;;23.91;52.45
50632;BME280;49583;45.590;-122.498;2022-08-21T04:49:59;101020.85;;;23.86;52.60
50632;BME280;49583;45.590;-122.498;2022-08-21T04:52:40;101027.63;;;23.78;52.78
50632;BME280;49583;45.590;-122.498;2022-08-21T04:54:50;101029.60;;;23.73;52.91
50632;BME280;49583;45.590;-122.498;2022-08-21T04:57:02;101027.20;;;23.68;53.07
50632;BME280;49583;45.590;-122.498;2022-08-21T04:59:15;101026.98;;;23.64;53.11
50632;BME280;49583;45.590;-122.498;2022-08-21T05:01:47;101025.94;;;23.59;53.29
50632;BME280;49583;45.590;-122.498;2022-08-21T05:04:05;101025.20;;;23.54;53.27
50632;BME280;49583;45.590;-122.498;2022-08-21T05:06:28;101022.33;;;23.46;53.46
50632;BME280;49583;45.590;-122.498;2022-08-21T05:08:37;101021.49;;;23.41;53.57
50632;BME280;49583;45.590;-122.498;2022-08-21T05:10:45;101026.27;;;23.36;53.71
50632;BME280;49583;45.590;-122.498;2022-08-21T05:12:52;101023.81;;;23.31;53.68
50632;BME280;49583;45.590;-122.498;2022-08-21T05:14:59;101025.79;;;23.26;54.08
50632;BME280;49583;45.590;-122.498;2022-08-21T05:17:09;101022.31;;;23.22;54.16
50632;BME280;49583;45.590;-122.498;2022-08-21T05:19:16;101021.08;;;23.16;54.10
50632;BME280;49583;45.590;-122.498;2022-08-21T05:21:23;101023.82;;;23.13;54.18
50632;BME280;49583;45.590;-122.498;2022-08-21T05:23:30;101022.35;;;23.08;54.28
50632;BME280;49583;45.590;-122.498;2022-08-21T05:25:37;101026.91;;;23.03;54.47
50632;BME280;49583;45.590;-122.498;2022-08-21T05:27:47;101027.90;;;22.99;54.60
50632;BME280;49583;45.590;-122.498;2022-08-21T05:29:56;101030.95;;;22.94;54.77
50632;BME280;49583;45.590;-122.498;2022-08-21T05:32:13;101031.90;;;22.89;54.84
50632;BME280;49583;45.590;-122.498;2022-08-21T05:34:22;101039.72;;;22.82;54.96
50632;BME280;49583;45.590;-122.498;2022-08-21T05:36:29;101042.64;;;22.77;55.04
50632;BME280;49583;45.590;-122.498;2022-08-21T05:38:38;101043.20;;;22.71;55.24
50632;BME280;49583;45.590;-122.498;2022-08-21T05:40:51;101045.95;;;22.66;55.35
50632;BME280;49583;45.590;-122.498;2022-08-21T05:42:58;101048.70;;;22.60;55.48
50632;BME280;49583;45.590;-122.498;2022-08-21T05:45:17;101051.73;;;22.57;55.63
50632;BME280;49583;45.590;-122.498;2022-08-21T05:47:52;101051.64;;;22.51;55.93
50632;BME280;49583;45.590;-122.498;2022-08-21T05:50:04;101055.15;;;22.47;56.14
50632;BME280;49583;45.590;-122.498;2022-08-21T05:52:19;101051.94;;;22.40;56.10
50632;BME280;49583;45.590;-122.498;2022-08-21T05:54:26;101054.61;;;22.35;56.26
50632;BME280;49583;45.590;-122.498;2022-08-21T05:56:33;101052.06;;;22.31;56.41
50632;BME280;49583;45.590;-122.498;2022-08-21T05:58:39;101053.27;;;22.27;56.42
50632;BME280;49583;45.590;-122.498;2022-08-21T06:00:47;101056.64;;;22.26;56.58
50632;BME280;49583;45.590;-122.498;2022-08-21T06:03:04;101057.73;;;22.23;56.77
50632;BME280;49583;45.590;-122.498;2022-08-21T06:05:13;101058.10;;;22.21;56.87
50632;BME280;49583;45.590;-122.498;2022-08-21T06:07:39;101063.31;;;22.18;56.91
50632;BME280;49583;45.590;-122.498;2022-08-21T06:09:49;101064.00;;;22.16;57.08
50632;BME280;49583;45.590;-122.498;2022-08-21T06:11:55;101065.83;;;22.13;56.94
50632;BME280;49583;45.590;-122.498;2022-08-21T06:14:02;101064.69;;;22.10;57.04
50632;BME280;49583;45.590;-122.498;2022-08-21T06:16:14;101062.15;;;22.06;57.22
50632;BME280;49583;45.590;-122.498;2022-08-21T06:18:24;101070.32;;;22.03;57.26
50632;BME280;49583;45.590;-122.498;2022-08-21T06:20:31;101068.32;;;22.00;57.38
50632;BME280;49583;45.590;-122.498;2022-08-21T06:22:48;101069.08;;;21.97;57.45
50632;BME280;49583;45.590;-122.498;2022-08-21T06:24:54;101073.19;;;21.93;57.52
50632;BME280;49583;45.590;-122.498;2022-08-21T06:27:05;101076.21;;;21.90;57.61
50632;BME280;49583;45.590;-122.498;2022-08-21T06:29:13;101077.06;;;21.86;57.73
50632;BME280;49583;45.590;-122.498;2022-08-21T06:31:28;101084.19;;;21.84;57.74
50632;BME280;49583;45.590;-122.498;2022-08-21T06:33:38;101081.65;;;21.79;57.89
50632;BME280;49583;45.590;-122.498;2022-08-21T06:35:48;101080.83;;;21.72;57.81
50632;BME280;49583;45.590;-122.498;2022-08-21T06:37:55;101083.42;;;21.69;58.14
50632;BME280;49583;45.590;-122.498;2022-08-21T06:42:29;101093.07;;;21.60;58.23
50632;BME280;49583;45.590;-122.498;2022-08-21T06:44:36;101090.99;;;21.56;58.33
50632;BME280;49583;45.590;-122.498;2022-08-21T06:46:42;101092.05;;;21.50;58.36
50632;BME280;49583;45.590;-122.498;2022-08-21T06:48:51;101091.94;;;21.47;58.57
50632;BME280;49583;45.590;-122.498;2022-08-21T06:51:07;101091.14;;;21.43;58.56
50632;BME280;49583;45.590;-122.498;2022-08-21T06:53:15;101090.23;;;21.40;58.72
50632;BME280;49583;45.590;-122.498;2022-08-21T06:55:22;101088.73;;;21.34;58.69
50632;BME280;49583;45.590;-122.498;2022-08-21T06:57:33;101096.59;;;21.30;58.69
50632;BME280;49583;45.590;-122.498;2022-08-21T06:59:40;101095.39;;;21.26;58.80
50632;BME280;49583;45.590;-122.498;2022-08-21T07:01:47;101093.08;;;21.22;58.94
50632;BME280;49583;45.590;-122.498;2022-08-21T07:03:55;101098.15;;;21.18;59.08
50632;BME280;49583;45.590;-122.498;2022-08-21T07:06:03;101093.27;;;21.12;59.10
50632;BME280;49583;45.590;-122.498;2022-08-21T07:08:12;101091.50;;;21.07;59.25
50632;BME280;49583;45.590;-122.498;2022-08-21T07:10:19;101091.91;;;21.02;59.33
50632;BME280;49583;45.590;-122.498;2022-08-21T07:12:30;101087.91;;;20.98;59.39
50632;BME280;49583;45.590;-122.498;2022-08-21T07:14:37;101089.40;;;20.95;59.39
50632;BME280;49583;45.590;-122.498;2022-08-21T07:16:58;101091.98;;;20.91;59.55
50632;BME280;49583;45.590;-122.498;2022-08-21T07:19:08;101095.31;;;20.88;59.59
50632;BME280;49583;45.590;-122.498;2022-08-21T07:21:16;101098.45;;;20.84;59.71
50632;BME280;49583;45.590;-122.498;2022-08-21T07:23:35;101095.10;;;20.79;59.66
50632;BME280;49583;45.590;-122.498;2022-08-21T07:25:43;101099.08;;;20.75;59.83
50632;BME280;49583;45.590;-122.498;2022-08-21T07:27:53;101098.95;;;20.71;59.84
50632;BME280;49583;45.590;-122.498;2022-08-21T07:30:23;101100.34;;;20.68;59.90
50632;BME280;49583;45.590;-122.498;2022-08-21T07:32:42;101102.06;;;20.65;59.92
50632;BME280;49583;45.590;-122.498;2022-08-21T07:34:49;101102.25;;;20.62;60.07
50632;BME280;49583;45.590;-122.498;2022-08-21T07:36:56;101107.48;;;20.58;60.05
50632;BME280;49583;45.590;-122.498;2022-08-21T07:39:09;101107.11;;;20.56;60.15
50632;BME280;49583;45.590;-122.498;2022-08-21T07:41:26;101109.29;;;20.52;60.28
50632;BME280;49583;45.590;-122.498;2022-08-21T07:43:58;101106.41;;;20.48;60.32
50632;BME280;49583;45.590;-122.498;2022-08-21T07:46:23;101109.05;;;20.45;60.42
50632;BME280;49583;45.590;-122.498;2022-08-21T07:48:30;101106.02;;;20.42;60.50
50632;BME280;49583;45.590;-122.498;2022-08-21T07:50:40;101106.52;;;20.40;60.62
50632;BME280;49583;45.590;-122.498;2022-08-21T07:52:47;101106.23;;;20.36;60.75
50632;BME280;49583;45.590;-122.498;2022-08-21T07:55:00;101107.63;;;20.34;60.81
50632;BME280;49583;45.590;-122.498;2022-08-21T07:57:10;101114.36;;;20.32;60.90
50632;BME280;49583;45.590;-122.498;2022-08-21T07:59:17;101110.73;;;20.29;60.92
50632;BME280;49583;45.590;-122.498;2022-08-21T08:01:28;101110.20;;;20.28;61.07
50632;BME280;49583;45.590;-122.498;2022-08-21T08:03:46;101111.42;;;20.25;61.05
50632;BME280;49583;45.590;-122.498;2022-08-21T08:05:53;101114.85;;;20.23;61.14
50632;BME280;49583;45.590;-122.498;2022-08-21T08:08:25;101119.74;;;20.20;61.21
50632;BME280;49583;45.590;-122.498;2022-08-21T08:10:32;101119.45;;;20.17;61.33
50632;BME280;49583;45.590;-122.498;2022-08-21T08:12:44;101121.94;;;20.14;61.36
50632;BME280;49583;45.590;-122.498;2022-08-21T08:14:58;101122.23;;;20.11;61.40
50632;BME280;49583;45.590;-122.498;2022-08-21T08:17:12;101122.09;;;20.08;61.54
50632;BME280;49583;45.590;-122.498;2022-08-21T08:19:23;101123.26;;;20.05;61.65
50632;BME280;49583;45.590;-122.498;2022-08-21T08:21:34;101123.44;;;20.01;61.68
50632;BME280;49583;45.590;-122.498;2022-08-21T08:23:44;101123.55;;;19.98;61.83
50632;BME280;49583;45.590;-122.498;2022-08-21T08:25:58;101123.20;;;19.95;61.83
50632;BME280;49583;45.590;-122.498;2022-08-21T08:28:09;101124.88;;;19.93;61.95
50632;BME280;49583;45.590;-122.498;2022-08-21T08:30:21;101128.95;;;19.90;61.99
50632;BME280;49583;45.590;-122.498;2022-08-21T08:32:37;101133.19;;;19.88;62.11
50632;BME280;49583;45.590;-122.498;2022-08-21T08:34:48;101127.48;;;19.85;62.23
50632;BME280;49583;45.590;-122.498;2022-08-21T08:36:58;101125.61;;;19.82;62.20
50632;BME280;49583;45.590;-122.498;2022-08-21T08:39:09;101126.36;;;19.79;62.32
50632;BME280;49583;45.590;-122.498;2022-08-21T08:41:31;101126.05;;;19.77;62.33
50632;BME280;49583;45.590;-122.498;2022-08-21T08:43:48;101127.09;;;19.75;62.42
50632;BME280;49583;45.590;-122.498;2022-08-21T08:45:57;101128.48;;;19.73;62.46
50632;BME280;49583;45.590;-122.498;2022-08-21T08:48:08;101128.09;;;19.72;62.53
50632;BME280;49583;45.590;-122.498;2022-08-21T08:50:32;101128.84;;;19.69;62.57
50632;BME280;49583;45.590;-122.498;2022-08-21T08:52:59;101132.09;;;19.68;62.64
50632;BME280;49583;45.590;-122.498;2022-08-21T08:55:14;101134.73;;;19.66;62.74
50632;BME280;49583;45.590;-122.498;2022-08-21T08:57:30;101132.54;;;19.64;62.80
50632;BME280;49583;45.590;-122.498;2022-08-21T08:59:52;101131.66;;;19.61;62.88
50632;BME280;49583;45.590;-122.498;2022-08-21T09:02:02;101133.76;;;19.59;62.95
50632;BME280;49583;45.590;-122.498;2022-08-21T09:04:13;101133.70;;;19.56;63.01
50632;BME280;49583;45.590;-122.498;2022-08-21T09:06:55;101134.44;;;19.54;63.03
50632;BME280;49583;45.590;-122.498;2022-08-21T09:11:52;101136.05;;;19.50;63.16
50632;BME280;49583;45.590;-122.498;2022-08-21T09:14:09;101133.13;;;19.49;63.24
50632;BME280;49583;45.590;-122.498;2022-08-21T09:16:41;101134.80;;;19.47;63.33
50632;BME280;49583;45.590;-122.498;2022-08-21T09:26:14;101126.45;;;19.36;63.64
50632;BME280;49583;45.590;-122.498;2022-08-21T09:28:21;101129.48;;;19.34;63.58
50632;BME280;49583;45.590;-122.498;2022-08-21T09:30:32;101131.80;;;19.32;63.73
50632;BME280;49583;45.590;-122.498;2022-08-21T09:32:44;101135.06;;;19.29;63.73
50632;BME280;49583;45.590;-122.498;2022-08-21T09:37:18;101136.92;;;19.22;63.96
50632;BME280;49583;45.590;-122.498;2022-08-21T09:39:51;101137.52;;;19.20;64.05
50632;BME280;49583;45.590;-122.498;2022-08-21T09:42:04;101143.17;;;19.16;64.27
50632;BME280;49583;45.590;-122.498;2022-08-21T09:44:27;101142.23;;;19.13;64.26
50632;BME280;49583;45.590;-122.498;2022-08-21T09:46:34;101145.52;;;19.09;64.30
50632;BME280;49583;45.590;-122.498;2022-08-21T09:48:51;101144.33;;;19.06;64.43
50632;BME280;49583;45.590;-122.498;2022-08-21T09:51:14;101144.77;;;19.03;64.52
50632;BME280;49583;45.590;-122.498;2022-08-21T09:53:30;101147.63;;;19.00;64.67
50632;BME280;49583;45.590;-122.498;2022-08-21T09:55:49;101149.77;;;18.98;64.78
50632;BME280;49583;45.590;-122.498;2022-08-21T09:58:16;101146.23;;;18.95;64.87
50632;BME280;49583;45.590;-122.498;2022-08-21T10:00:29;101146.48;;;18.93;64.90
50632;BME280;49583;45.590;-122.498;2022-08-21T10:02:43;101147.20;;;18.89;64.99
50632;BME280;49583;45.590;-122.498;2022-08-21T10:04:53;101146.04;;;18.86;65.01
50632;BME280;49583;45.590;-122.498;2022-08-21T10:07:12;101140.27;;;18.82;65.07
50632;BME280;49583;45.590;-122.498;2022-08-21T10:09:30;101140.83;;;18.81;65.05
50632;BME280;49583;45.590;-122.498;2022-08-21T10:11:56;101141.48;;;18.78;65.13
50632;BME280;49583;45.590;-122.498;2022-08-21T10:16:37;101134.88;;;18.69;65.21
50632;BME280;49583;45.590;-122.498;2022-08-21T10:21:40;101136.53;;;18.67;65.36
50632;BME280;49583;45.590;-122.498;2022-08-21T10:24:19;101141.16;;;18.64;65.42
50632;BME280;49583;45.590;-122.498;2022-08-21T10:29:02;101146.96;;;18.56;65.39
50632;BME280;49583;45.590;-122.498;2022-08-21T10:42:29;101157.61;;;18.38;66.04
50632;BME280;49583;45.590;-122.498;2022-08-21T10:47:35;101158.59;;;18.33;66.06
50632;BME280;49583;45.590;-122.498;2022-08-21T10:49:53;101161.91;;;18.31;66.08
50632;BME280;49583;45.590;-122.498;2022-08-21T10:52:48;101162.94;;;18.28;66.20
50632;BME280;49583;45.590;-122.498;2022-08-21T11:00:09;101160.77;;;18.18;66.37
50632;BME280;49583;45.590;-122.498;2022-08-21T11:02:33;101163.85;;;18.16;66.33
50632;BME280;49583;45.590;-122.498;2022-08-21T11:07:10;101165.83;;;18.12;66.48
50632;BME280;49583;45.590;-122.498;2022-08-21T11:09:25;101163.08;;;18.08;66.59
50632;BME280;49583;45.590;-122.498;2022-08-21T11:14:47;101172.73;;;18.04;66.85
50632;BME280;49583;45.590;-122.498;2022-08-21T11:17:13;101171.87;;;18.00;66.79
50632;BME280;49583;45.590;-122.498;2022-08-21T11:19:48;101175.83;;;17.96;66.79
50632;BME280;49583;45.590;-122.498;2022-08-21T11:26:49;101169.80;;;17.89;66.98
50632;BME280;49583;45.590;-122.498;2022-08-21T11:29:21;101173.55;;;17.87;67.09
50632;BME280;49583;45.590;-122.498;2022-08-21T11:31:52;101170.55;;;17.84;67.19
50632;BME280;49583;45.590;-122.498;2022-08-21T11:37:09;101164.29;;;17.81;67.31
50632;BME280;49583;45.590;-122.498;2022-08-21T11:39:40;101166.35;;;17.79;67.34
50632;BME280;49583;45.590;-122.498;2022-08-21T11:47:41;101175.23;;;17.71;67.36
50632;BME280;49583;45.590;-122.498;2022-08-21T11:52:44;101176.88;;;17.66;67.38
50632;BME280;49583;45.590;-122.498;2022-08-21T11:57:46;101174.30;;;17.59;67.47
50632;BME280;49583;45.590;-122.498;2022-08-21T12:00:03;101172.96;;;17.53;67.44
50632;BME280;49583;45.590;-122.498;2022-08-21T12:02:24;101174.70;;;17.49;67.41
50632;BME280;49583;45.590;-122.498;2022-08-21T12:04:44;101173.66;;;17.45;67.49
50632;BME280;49583;45.590;-122.498;2022-08-21T12:06:52;101175.02;;;17.41;67.53
50632;BME280;49583;45.590;-122.498;2022-08-21T12:09:33;101172.46;;;17.38;67.71
50632;BME280;49583;45.590;-122.498;2022-08-21T12:11:59;101167.17;;;17.34;67.75
50632;BME280;49583;45.590;-122.498;2022-08-21T12:14:17;101167.63;;;17.30;67.85
50632;BME280;49583;45.590;-122.498;2022-08-21T12:16:44;101163.91;;;17.26;67.86
50632;BME280;49583;45.590;-122.498;2022-08-21T12:21:32;101167.93;;;17.21;68.12
50632;BME280;49583;45.590;-122.498;2022-08-21T12:28:23;101160.10;;;17.16;68.42
50632;BME280;49583;45.590;-122.498;2022-08-21T12:30:37;101159.38;;;17.14;68.49
50632;BME280;49583;45.590;-122.498;2022-08-21T12:33:06;101156.75;;;17.11;68.51
50632;BME280;49583;45.590;-122.498;2022-08-21T12:35:44;101154.79;;;17.08;68.55
50632;BME280;49583;45.590;-122.498;2022-08-21T12:38:04;101156.59;;;17.06;68.59
50632;BME280;49583;45.590;-122.498;2022-08-21T12:40:39;101154.84;;;17.04;68.66
50632;BME280;49583;45.590;-122.498;2022-08-21T12:42:52;101154.69;;;17.00;68.70
50632;BME280;49583;45.590;-122.498;2022-08-21T12:45:17;101157.11;;;16.97;68.70
50632;BME280;49583;45.590;-122.498;2022-08-21T12:47:52;101158.86;;;16.95;68.76
50632;BME280;49583;45.590;-122.498;2022-08-21T12:50:05;101163.11;;;16.92;68.76
50632;BME280;49583;45.590;-122.498;2022-08-21T12:52:41;101163.89;;;16.88;68.86
50632;BME280;49583;45.590;-122.498;2022-08-21T12:54:54;101159.55;;;16.86;68.82
50632;BME280;49583;45.590;-122.498;2022-08-21T12:57:04;101160.16;;;16.84;68.87
50632;BME280;49583;45.590;-122.498;2022-08-21T12:59:12;101160.38;;;16.81;68.90
50632;BME280;49583;45.590;-122.498;2022-08-21T13:01:34;101156.68;;;16.80;68.97
50632;BME280;49583;45.590;-122.498;2022-08-21T13:03:46;101161.80;;;16.78;68.97